Time;durP1;ratioP1;P1;durP2;ratioP2;P2;SDS_P1;SDS_P2;PMS_P1;PMS_P2;Temp;Humidity;BMP_temperature;BMP_pressure;BME280_temperature;BME280_humidity;BME280_pressure;Samples;Min_cycle;Max_cycle;Signal;HPM_P1;HPM_P2
2022/12/12 00:01:18;;;;;;;28.10;12.38;;;;;;;;;;5074375;28;20054;-73
2022/12/12 00:03:44;;;;;;;31.00;14.40;;;;;;;;;;5074659;28;20062;-73
2022/12/12 00:06:12;;;;;;;27.83;12.88;;;;;;;;;;5074460;28;20028;-73
2022/12/12 00:08:38;;;;;;;28.60;13.30;;;;;;;;;;5074367;28;20466;-73
2022/12/12 00:11:05;;;;;;;28.25;12.75;;;;;;;;;;5074739;28;20050;-73
2022/12/12 00:13:32;;;;;;;29.60;14.30;;;;;;;;;;5074420;28;20030;-73
2022/12/12 00:15:58;;;;;;;33.42;14.80;;;;;;;;;;5074199;28;20038;-73
2022/12/12 00:18:24;;;;;;;32.97;14.98;;;;;;;;;;5074544;28;20040;-73
2022/12/12 00:20:55;;;;;;;26.00;12.57;;;;;;;;;;5074101;28;20035;-73
2022/12/12 00:23:22;;;;;;;20.67;9.98;;;;;;;;;;5074418;28;20038;-73
2022/12/12 00:26:00;;;;;;;28.33;11.50;;;;;;;;;;5074155;28;20032;-73
2022/12/12 00:28:26;;;;;;;24.55;11.05;;;;;;;;;;5074060;28;20058;-73
2022/12/12 00:30:52;;;;;;;20.90;10.00;;;;;;;;;;5073944;28;20027;-73
2022/12/12 00:33:19;;;;;;;26.48;11.73;;;;;;;;;;5073889;28;20021;-72
2022/12/12 00:35:48;;;;;;;25.33;11.93;;;;;;;;;;5074072;28;20021;-73
2022/12/12 00:38:15;;;;;;;26.83;12.13;;;;;;;;;;5073665;28;20056;-73
2022/12/12 00:40:41;;;;;;;30.10;13.13;;;;;;;;;;5074010;28;20368;-73
2022/12/12 00:43:07;;;;;;;25.40;11.82;;;;;;;;;;5073508;28;20024;-73
2022/12/12 00:45:34;;;;;;;22.95;10.52;;;;;;;;;;5073002;28;20032;-73
2022/12/12 00:48:00;;;;;;;21.38;9.57;;;;;;;;;;5073729;28;20033;-73
2022/12/12 00:50:26;;;;;;;19.30;8.77;;;;;;;;;;5073614;28;20017;-73
2022/12/12 00:52:53;;;;;;;19.70;9.43;;;;;;;;;;5073825;28;20020;-73
2022/12/12 00:55:19;;;;;;;20.48;8.77;;;;;;;;;;5073558;28;20035;-73
2022/12/12 00:57:45;;;;;;;14.98;8.32;;;;;;;;;;5073462;28;20029;-73
2022/12/12 01:00:12;;;;;;;13.75;6.95;;;;;;;;;;5073441;28;20031;-73
2022/12/12 01:02:39;;;;;;;13.30;6.93;;;;;;;;;;5073398;28;20020;-73
2022/12/12 01:05:06;;;;;;;15.93;7.32;;;;;;;;;;5073432;28;20044;-73
2022/12/12 01:07:32;;;;;;;14.35;6.93;;;;;;;;;;5073304;28;20020;-73
2022/12/12 01:09:58;;;;;;;13.02;7.15;;;;;;;;;;5073600;28;20021;-73
2022/12/12 01:12:25;;;;;;;12.70;6.68;;;;;;;;;;5072957;28;20077;-73
2022/12/12 01:14:51;;;;;;;12.07;6.95;;;;;;;;;;5073412;28;20388;-73
2022/12/12 01:17:17;;;;;;;12.57;6.50;;;;;;;;;;5073316;28;20039;-73
2022/12/12 01:19:44;;;;;;;11.13;5.75;;;;;;;;;;5073188;28;20025;-73
2022/12/12 01:22:10;;;;;;;11.52;6.20;;;;;;;;;;5072850;28;20428;-73
2022/12/12 01:24:36;;;;;;;12.57;6.38;;;;;;;;;;5071979;28;20121;-73
2022/12/12 01:27:03;;;;;;;11.82;6.93;;;;;;;;;;5072570;28;20046;-73
2022/12/12 01:29:29;;;;;;;14.88;7.40;;;;;;;;;;5072914;28;20029;-73
2022/12/12 01:31:56;;;;;;;11.95;6.90;;;;;;;;;;5073276;28;20051;-73
2022/12/12 01:34:22;;;;;;;11.45;5.90;;;;;;;;;;5072971;28;20027;-73
2022/12/12 01:36:48;;;;;;;14.32;7.20;;;;;;;;;;5072677;28;20029;-73
2022/12/12 01:39:15;;;;;;;13.30;6.47;;;;;;;;;;5072355;28;20489;-73
2022/12/12 01:41:42;;;;;;;18.13;9.85;;;;;;;;;;5072492;28;20038;-73
2022/12/12 01:44:28;;;;;;;31.15;15.32;;;;;;;;;;5072559;28;20156;-73
2022/12/12 01:46:54;;;;;;;27.05;12.20;;;;;;;;;;5072407;28;20040;-73
2022/12/12 01:49:23;;;;;;;17.25;8.82;;;;;;;;;;5072529;28;20028;-73
2022/12/12 01:51:51;;;;;;;15.98;7.63;;;;;;;;;;5072746;28;20056;-73
2022/12/12 01:54:20;;;;;;;19.23;7.82;;;;;;;;;;5072362;28;20030;-72
2022/12/12 01:56:47;;;;;;;16.17;7.55;;;;;;;;;;5072002;28;20489;-73
2022/12/12 01:59:15;;;;;;;13.73;6.88;;;;;;;;;;5087962;28;20025;-72
2022/12/12 02:01:41;;;;;;;14.65;7.03;;;;;;;;;;5072359;28;20035;-73
2022/12/12 02:04:09;;;;;;;12.07;6.53;;;;;;;;;;5072454;28;20516;-73
2022/12/12 02:06:35;;;;;;;14.40;6.60;;;;;;;;;;5072211;28;20031;-73
2022/12/12 02:09:03;;;;;;;13.40;7.05;;;;;;;;;;5072299;28;20031;-72
2022/12/12 02:11:31;;;;;;;14.02;7.35;;;;;;;;;;5071627;28;20031;-73
2022/12/12 02:13:58;;;;;;;14.52;6.85;;;;;;;;;;5072067;28;20499;-73
2022/12/12 02:16:24;;;;;;;11.88;6.07;;;;;;;;;;5072424;28;20039;-72
2022/12/12 02:18:56;;;;;;;10.52;6.10;;;;;;;;;;5072031;28;20027;-73
2022/12/12 02:21:26;;;;;;;13.00;6.50;;;;;;;;;;5071949;28;20029;-73
2022/12/12 02:23:55;;;;;;;11.93;6.07;;;;;;;;;;5072082;28;20025;-72
2022/12/12 02:26:34;;;;;;;12.52;5.78;;;;;;;;;;5071668;28;20474;-72
2022/12/12 02:29:13;;;;;;;9.52;4.88;;;;;;;;;;5070786;28;20035;-72
2022/12/12 02:31:45;;;;;;;10.27;5.82;;;;;;;;;;5072356;28;20380;-72
2022/12/12 02:34:14;;;;;;;10.80;5.70;;;;;;;;;;5070986;28;20024;-72
2022/12/12 02:36:58;;;;;;;9.65;4.93;;;;;;;;;;5071708;28;20392;-71
2022/12/12 02:40:03;;;;;;;9.80;5.35;;;;;;;;;;5070608;28;20032;-72
2022/12/12 02:42:44;;;;;;;11.93;5.35;;;;;;;;;;5009900;28;20689;-72
2022/12/12 02:45:36;;;;;;;11.10;4.70;;;;;;;;;;5010233;28;20026;-72
2022/12/12 02:48:21;;;;;;;9.38;5.25;;;;;;;;;;4990224;28;20039;-72
2022/12/12 02:50:50;;;;;;;9.95;4.75;;;;;;;;;;4992825;28;20035;-72
2022/12/12 02:53:17;;;;;;;10.63;5.10;;;;;;;;;;4993889;28;20051;-71
2022/12/12 02:55:44;;;;;;;9.10;5.18;;;;;;;;;;4994332;28;20040;-72
2022/12/12 02:58:10;;;;;;;9.80;4.85;;;;;;;;;;4994214;28;20042;-72
2022/12/12 03:00:46;;;;;;;9.80;4.93;;;;;;;;;;4994099;28;20057;-72
2022/12/12 03:09:00;;;;;;;9.75;4.60;;;;;;;;;;4993740;28;20045;-72
2022/12/12 03:11:29;;;;;;;11.73;6.18;;;;;;;;;;4994137;28;20044;-72
2022/12/12 03:13:58;;;;;;;12.45;5.15;;;;;;;;;;5009243;28;20053;-72
2022/12/12 03:16:27;;;;;;;11.77;5.43;;;;;;;;;;5013608;28;20032;-72
2022/12/12 03:18:53;;;;;;;7.82;4.25;;;;;;;;;;5013480;28;20037;-72
2022/12/12 03:21:41;;;;;;;6.88;4.55;;;;;;;;;;5013256;28;20510;-72
2022/12/12 03:24:17;;;;;;;9.23;4.20;;;;;;;;;;5025941;28;20029;-72
2022/12/12 03:26:52;;;;;;;9.65;4.40;;;;;;;;;;5075179;28;20037;-72
2022/12/12 03:29:25;;;;;;;7.25;4.03;;;;;;;;;;5075284;28;20184;-72
2022/12/12 03:31:54;;;;;;;6.90;4.07;;;;;;;;;;5075045;28;20053;-72
2022/12/12 03:34:24;;;;;;;7.25;4.20;;;;;;;;;;5075077;28;20025;-72
2022/12/12 03:37:06;;;;;;;7.50;4.07;;;;;;;;;;5074583;28;20034;-72
2022/12/12 03:39:49;;;;;;;8.02;4.40;;;;;;;;;;5075085;28;20259;-72
2022/12/12 03:42:20;;;;;;;7.68;4.10;;;;;;;;;;5075086;28;20031;-72
2022/12/12 03:44:56;;;;;;;8.75;4.30;;;;;;;;;;5074889;28;20054;-72
2022/12/12 03:47:29;;;;;;;8.55;4.50;;;;;;;;;;5074666;28;20043;-72
2022/12/12 03:50:19;;;;;;;7.70;3.95;;;;;;;;;;5074794;28;20032;-72
2022/12/12 03:53:06;;;;;;;6.55;4.15;;;;;;;;;;5069326;28;20041;-72
2022/12/12 03:55:37;;;;;;;9.00;5.03;;;;;;;;;;5067468;28;20039;-72
2022/12/12 03:58:16;;;;;;;10.18;4.45;;;;;;;;;;5074737;28;20493;-72
2022/12/12 04:00:44;;;;;;;7.70;4.30;;;;;;;;;;5074029;28;20009;-72
2022/12/12 04:03:22;;;;;;;8.50;5.00;;;;;;;;;;5074720;28;20024;-71
2022/12/12 04:08:34;;;;;;;8.65;4.60;;;;;;;;;;5074411;28;20033;-72
2022/12/12 04:13:54;;;;;;;8.27;4.05;;;;;;;;;;5074324;28;20429;-72
2022/12/12 04:16:25;;;;;;;8.82;4.63;;;;;;;;;;5074634;28;20028;-72
2022/12/12 04:19:00;;;;;;;9.07;4.13;;;;;;;;;;5074299;28;20009;-72
2022/12/12 04:24:33;;;;;;;6.10;3.75;;;;;;;;;;5074387;28;20035;-72
2022/12/12 04:27:13;;;;;;;7.50;3.75;;;;;;;;;;5074177;28;20206;-72
2022/12/12 04:29:39;;;;;;;5.97;3.40;;;;;;;;;;5074274;28;20496;-72
2022/12/12 04:32:15;;;;;;;6.53;3.90;;;;;;;;;;5074261;28;20024;-72
2022/12/12 04:34:44;;;;;;;5.45;3.53;;;;;;;;;;5074088;28;20090;-72
2022/12/12 04:37:13;;;;;;;7.75;4.22;;;;;;;;;;5073771;28;20408;-72
2022/12/12 04:39:40;;;;;;;6.88;3.88;;;;;;;;;;5074017;28;20110;-72
2022/12/12 04:42:07;;;;;;;9.00;5.43;;;;;;;;;;5073790;28;20032;-72
2022/12/12 04:44:35;;;;;;;11.07;5.47;;;;;;;;;;5074010;28;20020;-72
2022/12/12 04:47:02;;;;;;;11.02;6.00;;;;;;;;;;5073834;28;20029;-72
2022/12/12 04:49:30;;;;;;;9.57;5.30;;;;;;;;;;5073303;28;20050;-72
2022/12/12 04:51:59;;;;;;;9.60;5.07;;;;;;;;;;5073755;28;20016;-72
2022/12/12 04:54:25;;;;;;;8.68;4.63;;;;;;;;;;5073779;28;20028;-72
2022/12/12 04:56:54;;;;;;;7.03;3.63;;;;;;;;;;5073453;28;20020;-72
2022/12/12 04:59:20;;;;;;;7.65;3.85;;;;;;;;;;5073456;28;20035;-72
2022/12/12 05:01:58;;;;;;;6.68;3.97;;;;;;;;;;5073591;28;20024;-72
2022/12/12 05:04:41;;;;;;;8.93;3.67;;;;;;;;;;5073393;28;20028;-72
2022/12/12 05:07:10;;;;;;;7.15;3.78;;;;;;;;;;5073301;28;20448;-72
2022/12/12 05:09:36;;;;;;;7.18;3.75;;;;;;;;;;5072088;28;20456;-72
2022/12/12 05:12:03;;;;;;;8.77;4.90;;;;;;;;;;5072675;28;20024;-72
2022/12/12 05:14:30;;;;;;;8.77;5.00;;;;;;;;;;5072990;28;20389;-73
2022/12/12 05:17:00;;;;;;;13.02;5.45;;;;;;;;;;5073340;28;20035;-72
2022/12/12 05:19:26;;;;;;;11.57;6.20;;;;;;;;;;5072722;28;20028;-72
2022/12/12 05:21:53;;;;;;;13.85;7.63;;;;;;;;;;5072824;28;20037;-72
2022/12/12 05:24:19;;;;;;;16.83;7.18;;;;;;;;;;5072383;28;20016;-72
2022/12/12 05:26:45;;;;;;;15.15;7.28;;;;;;;;;;5055128;28;20036;-72
2022/12/12 05:29:12;;;;;;;12.07;6.25;;;;;;;;;;5072915;28;20389;-72
2022/12/12 05:31:38;;;;;;;9.57;5.13;;;;;;;;;;5072868;28;20748;-72
2022/12/12 05:34:04;;;;;;;8.13;4.70;;;;;;;;;;5072575;28;20031;-72
2022/12/12 05:36:31;;;;;;;8.52;4.20;;;;;;;;;;5073118;28;20020;-72
2022/12/12 05:38:57;;;;;;;12.05;5.07;;;;;;;;;;5072587;28;20040;-72
2022/12/12 05:41:24;;;;;;;8.30;4.25;;;;;;;;;;5072854;28;20062;-72
2022/12/12 05:43:51;;;;;;;8.07;4.50;;;;;;;;;;5072535;28;20093;-72
2022/12/12 05:46:17;;;;;;;8.95;4.20;;;;;;;;;;5072676;28;20027;-72
2022/12/12 05:48:49;;;;;;;8.57;4.28;;;;;;;;;;5072171;28;20036;-72
2022/12/12 05:51:16;;;;;;;9.38;5.15;;;;;;;;;;5072693;28;20013;-72
2022/12/12 05:53:43;;;;;;;10.77;4.68;;;;;;;;;;5072561;28;20021;-72
2022/12/12 05:56:10;;;;;;;8.70;4.38;;;;;;;;;;5072370;28;20024;-72
2022/12/12 05:58:36;;;;;;;9.85;4.28;;;;;;;;;;5072676;28;20069;-72
2022/12/12 06:01:04;;;;;;;7.35;4.13;;;;;;;;;;5072473;28;20430;-72
2022/12/12 06:03:31;;;;;;;9.05;4.65;;;;;;;;;;5072084;28;20031;-72
2022/12/12 06:05:57;;;;;;;9.52;4.70;;;;;;;;;;5072344;28;20030;-72
2022/12/12 06:08:23;;;;;;;9.43;4.78;;;;;;;;;;5072263;28;20404;-72
2022/12/12 06:10:50;;;;;;;7.35;4.57;;;;;;;;;;5072019;28;20032;-72
2022/12/12 06:13:16;;;;;;;9.02;4.43;;;;;;;;;;5072249;28;20401;-72
2022/12/12 06:15:42;;;;;;;7.35;3.70;;;;;;;;;;5072148;28;20028;-72
2022/12/12 06:18:11;;;;;;;7.38;4.70;;;;;;;;;;5071796;28;20435;-72
2022/12/12 06:20:37;;;;;;;16.88;7.03;;;;;;;;;;5071951;28;20036;-72
2022/12/12 06:23:03;;;;;;;11.98;6.13;;;;;;;;;;5071981;28;20028;-72
2022/12/12 06:25:30;;;;;;;8.77;4.68;;;;;;;;;;5071885;28;20020;-72
2022/12/12 06:27:56;;;;;;;12.40;5.55;;;;;;;;;;5071917;28;20036;-72
2022/12/12 06:30:23;;;;;;;12.25;6.15;;;;;;;;;;5072715;28;20024;-72
2022/12/12 06:32:49;;;;;;;11.70;5.50;;;;;;;;;;5071568;28;20029;-72
2022/12/12 06:35:16;;;;;;;12.80;5.53;;;;;;;;;;5072020;28;20031;-72
2022/12/12 06:37:42;;;;;;;12.95;6.47;;;;;;;;;;5072063;28;20040;-72
2022/12/12 06:40:09;;;;;;;17.13;6.80;;;;;;;;;;5071818;28;20028;-72
2022/12/12 06:42:35;;;;;;;12.65;7.18;;;;;;;;;;5071812;28;20036;-73
2022/12/12 06:45:02;;;;;;;21.25;9.68;;;;;;;;;;5072136;28;20024;-72
2022/12/12 06:47:28;;;;;;;30.17;11.98;;;;;;;;;;5071430;28;20043;-72
2022/12/12 06:49:55;;;;;;;31.30;12.63;;;;;;;;;;5071759;28;20046;-72
2022/12/12 06:52:21;;;;;;;25.70;11.10;;;;;;;;;;5070573;28;20043;-72
2022/12/12 06:54:47;;;;;;;28.23;11.30;;;;;;;;;;5071698;28;20487;-72
2022/12/12 06:57:14;;;;;;;31.02;12.18;;;;;;;;;;5087561;28;20032;-72
2022/12/12 06:59:40;;;;;;;27.20;12.10;;;;;;;;;;5071810;28;20020;-72
2022/12/12 07:02:06;;;;;;;48.88;22.25;;;;;;;;;;5071484;28;20039;-72
2022/12/12 07:04:33;;;;;;;38.58;13.23;;;;;;;;;;5087449;28;20503;-72
2022/12/12 07:06:59;;;;;;;26.05;11.90;;;;;;;;;;5071833;28;20033;-72
2022/12/12 07:09:27;;;;;;;25.10;11.13;;;;;;;;;;5071541;28;20485;-72
2022/12/12 07:11:53;;;;;;;15.93;7.82;;;;;;;;;;5071616;28;20028;-72
2022/12/12 07:14:19;;;;;;;16.83;7.40;;;;;;;;;;5071340;28;20043;-72
2022/12/12 07:16:46;;;;;;;11.93;6.15;;;;;;;;;;5071586;28;20020;-72
2022/12/12 07:19:12;;;;;;;14.55;6.53;;;;;;;;;;5071364;28;20016;-73
2022/12/12 07:21:38;;;;;;;13.52;6.18;;;;;;;;;;5071440;28;20478;-72
2022/12/12 07:24:05;;;;;;;11.90;5.97;;;;;;;;;;5071747;28;20035;-72
2022/12/12 07:26:31;;;;;;;11.25;5.45;;;;;;;;;;5068606;28;20031;-72
2022/12/12 07:28:57;;;;;;;13.50;6.50;;;;;;;;;;5067948;28;20033;-72
2022/12/12 07:31:25;;;;;;;28.90;13.93;;;;;;;;;;5068578;28;20023;-71
2022/12/12 07:33:53;;;;;;;28.45;11.70;;;;;;;;;;5047777;28;20033;-73
2022/12/12 07:36:19;;;;;;;21.98;9.65;;;;;;;;;;5048839;28;20025;-72
2022/12/12 07:38:45;;;;;;;23.92;9.68;;;;;;;;;;5057485;28;20064;-73
2022/12/12 07:41:13;;;;;;;14.88;7.32;;;;;;;;;;5061535;28;20029;-73
2022/12/12 07:43:41;;;;;;;12.80;6.18;;;;;;;;;;5072092;28;20025;-71
2022/12/12 07:46:08;;;;;;;9.40;4.40;;;;;;;;;;5073155;28;20016;-71
2022/12/12 07:48:35;;;;;;;8.00;4.03;;;;;;;;;;5073115;28;20040;-72
2022/12/12 07:51:01;;;;;;;7.13;3.83;;;;;;;;;;5070959;28;20028;-72
2022/12/12 07:53:28;;;;;;;7.88;4.07;;;;;;;;;;5055416;28;20489;-71
2022/12/12 07:55:55;;;;;;;9.90;4.20;;;;;;;;;;5062654;28;20017;-71
2022/12/12 07:58:21;;;;;;;12.38;5.07;;;;;;;;;;5071029;28;20029;-71
2022/12/12 08:00:48;;;;;;;11.20;4.80;;;;;;;;;;5071121;28;20402;-71
2022/12/12 08:03:14;;;;;;;10.25;5.15;;;;;;;;;;5065568;28;20040;-71
2022/12/12 08:05:41;;;;;;;10.05;5.70;;;;;;;;;;5072647;28;20032;-72
2022/12/12 08:08:07;;;;;;;13.93;6.28;;;;;;;;;;5071766;28;20043;-72
2022/12/12 08:10:34;;;;;;;14.18;6.80;;;;;;;;;;5071212;28;20394;-73
2022/12/12 08:13:00;;;;;;;16.17;5.53;;;;;;;;;;5071235;28;20024;-72
2022/12/12 08:15:26;;;;;;;12.25;7.10;;;;;;;;;;5073170;28;20477;-69
2022/12/12 08:17:53;;;;;;;10.95;5.60;;;;;;;;;;5067994;28;20029;-75
2022/12/12 08:20:19;;;;;;;13.00;5.50;;;;;;;;;;5053063;28;20035;-73
2022/12/12 08:22:45;;;;;;;10.52;5.03;;;;;;;;;;5068853;28;20024;-71
2022/12/12 08:25:12;;;;;;;10.27;5.40;;;;;;;;;;5070401;28;20652;-72
2022/12/12 08:27:38;;;;;;;12.00;5.80;;;;;;;;;;5067729;28;20040;-71
2022/12/12 08:30:04;;;;;;;8.88;4.95;;;;;;;;;;5071012;28;20031;-71
2022/12/12 08:32:31;;;;;;;25.17;8.50;;;;;;;;;;5070716;28;20397;-71
2022/12/12 08:34:57;;;;;;;13.48;5.72;;;;;;;;;;5071879;28;20799;-73
2022/12/12 08:37:24;;;;;;;10.57;5.45;;;;;;;;;;5071430;28;20051;-69
2022/12/12 08:39:50;;;;;;;8.30;4.85;;;;;;;;;;5065175;28;20394;-68
2022/12/12 08:42:17;;;;;;;18.50;6.18;;;;;;;;;;5065442;28;20062;-74
2022/12/12 08:44:44;;;;;;;7.38;4.68;;;;;;;;;;5070851;28;20050;-70
2022/12/12 08:47:10;;;;;;;8.95;4.90;;;;;;;;;;5070384;28;20037;-70
2022/12/12 08:49:37;;;;;;;7.57;4.63;;;;;;;;;;5072217;28;20093;-72
2022/12/12 08:52:06;;;;;;;12.18;6.43;;;;;;;;;;5071722;28;20029;-73
2022/12/12 08:54:32;;;;;;;21.25;7.80;;;;;;;;;;5072198;28;20029;-73
2022/12/12 08:56:58;;;;;;;19.90;10.50;;;;;;;;;;5071255;28;20081;-74
2022/12/12 08:59:25;;;;;;;15.65;8.85;;;;;;;;;;5071574;28;20033;-76
2022/12/12 09:01:51;;;;;;;13.85;7.93;;;;;;;;;;5071636;28;20035;-76
2022/12/12 09:04:17;;;;;;;10.52;5.32;;;;;;;;;;5071879;28;20034;-72
2022/12/12 09:06:44;;;;;;;6.38;4.30;;;;;;;;;;5071303;28;20025;-73
2022/12/12 09:09:11;;;;;;;7.45;4.55;;;;;;;;;;5071274;28;20035;-73
2022/12/12 09:11:37;;;;;;;8.02;4.70;;;;;;;;;;5071646;28;20478;-72
2022/12/12 09:14:03;;;;;;;6.70;4.22;;;;;;;;;;5071234;28;20397;-73
2022/12/12 09:16:30;;;;;;;11.10;6.25;;;;;;;;;;5071532;28;20029;-71
2022/12/12 09:18:57;;;;;;;16.20;7.68;;;;;;;;;;5071415;28;20389;-83
2022/12/12 09:21:23;;;;;;;11.25;6.50;;;;;;;;;;5072015;28;20027;-69
2022/12/12 09:23:50;;;;;;;9.02;4.60;;;;;;;;;;5071839;28;20032;-69
2022/12/12 09:26:19;;;;;;;8.07;4.45;;;;;;;;;;5071448;28;20025;-77
2022/12/12 09:28:46;;;;;;;8.05;4.13;;;;;;;;;;5071431;28;20683;-80
2022/12/12 09:31:12;;;;;;;11.38;5.60;;;;;;;;;;5071308;28;20025;-71
2022/12/12 09:33:39;;;;;;;7.57;4.57;;;;;;;;;;5070903;28;20026;-73
2022/12/12 09:36:06;;;;;;;9.13;4.30;;;;;;;;;;5070827;28;20017;-77
2022/12/12 09:38:33;;;;;;;5.93;4.30;;;;;;;;;;5071328;28;20033;-77
2022/12/12 09:41:04;;;;;;;8.20;4.40;;;;;;;;;;5070992;28;20029;-71
2022/12/12 09:43:36;;;;;;;6.32;3.92;;;;;;;;;;5071515;28;20030;-73
2022/12/12 09:46:11;;;;;;;5.85;4.13;;;;;;;;;;5071279;28;20059;-74
2022/12/12 09:48:42;;;;;;;17.33;7.43;;;;;;;;;;5071222;28;20050;-74
2022/12/12 09:51:08;;;;;;;;;;;;;;;;;;5070282;28;20028;-74
2022/12/12 09:53:35;;;;;;;13.00;7.07;;;;;;;;;;5070893;28;19908;-78
2022/12/12 09:56:01;;;;;;;9.25;4.70;;;;;;;;;;5070135;28;20031;-77
2022/12/12 09:58:37;;;;;;;11.57;4.80;;;;;;;;;;5071193;28;20016;-69
2022/12/12 10:01:11;;;;;;;9.10;5.30;;;;;;;;;;5071203;28;20030;-74
2022/12/12 10:03:53;;;;;;;9.82;5.40;;;;;;;;;;5070301;28;20012;-73
2022/12/12 10:06:20;;;;;;;7.63;4.68;;;;;;;;;;5070529;28;20033;-70
2022/12/12 10:09:02;;;;;;;9.80;4.60;;;;;;;;;;5071079;28;20098;-70
2022/12/12 10:11:49;;;;;;;12.10;4.82;;;;;;;;;;5069863;28;20054;-73
2022/12/12 10:14:27;;;;;;;8.43;4.30;;;;;;;;;;5071042;28;20032;-72
2022/12/12 10:16:55;;;;;;;6.03;3.97;;;;;;;;;;5069213;28;20031;-71
2022/12/12 10:19:32;;;;;;;10.02;5.63;;;;;;;;;;5069702;28;20465;-75
2022/12/12 10:22:03;;;;;;;11.15;5.55;;;;;;;;;;5069769;28;20024;-73
2022/12/12 10:24:32;;;;;;;7.82;4.25;;;;;;;;;;5067460;28;20039;-70
2022/12/12 10:27:00;;;;;;;9.50;4.75;;;;;;;;;;5068421;28;20037;-77
2022/12/12 10:29:27;;;;;;;9.57;5.47;;;;;;;;;;5068584;28;20511;-74
2022/12/12 10:32:02;;;;;;;11.23;5.68;;;;;;;;;;5070061;28;20021;-72
2022/12/12 10:34:28;;;;;;;7.50;4.45;;;;;;;;;;5069402;28;20392;-68
2022/12/12 10:36:55;;;;;;;6.55;3.88;;;;;;;;;;5069147;28;20040;-69
2022/12/12 10:39:21;;;;;;;7.10;4.15;;;;;;;;;;5069902;28;20028;-68
2022/12/12 10:42:23;;;;;;;9.20;3.63;;;;;;;;;;5070026;28;20413;-70
2022/12/12 10:44:59;;;;;;;8.15;3.42;;;;;;;;;;5028053;28;20031;-73
2022/12/12 10:47:25;;;;;;;5.85;3.25;;;;;;;;;;5027291;28;20255;-75
2022/12/12 10:49:58;;;;;;;7.55;3.20;;;;;;;;;;5028284;28;20511;-70
2022/12/12 10:52:25;;;;;;;7.55;3.47;;;;;;;;;;5028188;28;20043;-80
2022/12/12 10:54:55;;;;;;;7.63;3.50;;;;;;;;;;5028334;28;20043;-73
2022/12/12 10:57:25;;;;;;;8.57;4.40;;;;;;;;;;5028227;28;20044;-77
2022/12/12 10:59:55;;;;;;;23.70;8.30;;;;;;;;;;5025176;28;20026;-68
2022/12/12 11:02:22;;;;;;;18.15;5.80;;;;;;;;;;5025647;28;20038;-69
2022/12/12 11:04:48;;;;;;;7.30;3.70;;;;;;;;;;5027789;28;20560;-78
2022/12/12 11:07:19;;;;;;;7.10;4.03;;;;;;;;;;5026405;28;20096;-75
2022/12/12 11:09:46;;;;;;;7.82;4.00;;;;;;;;;;5027775;28;20044;-74
2022/12/12 11:12:14;;;;;;;8.27;3.60;;;;;;;;;;5014195;28;20052;-73
2022/12/12 11:14:44;;;;;;;5.22;2.78;;;;;;;;;;5015605;28;20029;-74
2022/12/12 11:17:27;;;;;;;6.20;2.85;;;;;;;;;;5031921;28;20026;-70
2022/12/12 11:19:54;;;;;;;4.75;3.00;;;;;;;;;;5071809;28;20029;-77
2022/12/12 11:22:21;;;;;;;4.88;2.75;;;;;;;;;;5072758;28;20543;-74
2022/12/12 11:24:48;;;;;;;4.97;2.90;;;;;;;;;;5073850;28;20491;-67
2022/12/12 11:27:24;;;;;;;3.70;2.85;;;;;;;;;;5073935;28;20126;-73
2022/12/12 11:29:55;;;;;;;5.68;3.47;;;;;;;;;;5074136;28;20028;-73
2022/12/12 11:32:26;;;;;;;7.82;4.03;;;;;;;;;;5073643;28;20423;-70
2022/12/12 11:34:54;;;;;;;6.53;4.32;;;;;;;;;;5072767;28;20374;-71
2022/12/12 11:37:22;;;;;;;12.55;6.25;;;;;;;;;;5073976;28;20052;-69
2022/12/12 11:39:50;;;;;;;10.95;5.68;;;;;;;;;;5074199;28;20043;-74
2022/12/12 11:42:24;;;;;;;14.23;5.25;;;;;;;;;;5074347;28;20105;-74
2022/12/12 11:44:59;;;;;;;10.52;5.05;;;;;;;;;;5073655;28;20478;-70
2022/12/12 11:47:27;;;;;;;8.38;4.22;;;;;;;;;;5070238;28;20032;-77
2022/12/12 11:49:56;;;;;;;8.25;4.47;;;;;;;;;;5071763;28;20048;-74
2022/12/12 11:52:24;;;;;;;10.77;4.40;;;;;;;;;;5073722;28;20052;-71
2022/12/12 11:54:51;;;;;;;6.65;4.05;;;;;;;;;;5073745;28;20029;-75
2022/12/12 11:57:30;;;;;;;8.15;4.32;;;;;;;;;;5073768;28;20039;-72
2022/12/12 12:00:09;;;;;;;6.88;4.30;;;;;;;;;;5073311;28;20028;-77
2022/12/12 12:02:51;;;;;;;6.50;4.32;;;;;;;;;;5073195;28;20017;-74
2022/12/12 12:05:17;;;;;;;8.07;4.10;;;;;;;;;;5073146;28;20505;-75
2022/12/12 12:07:50;;;;;;;7.13;4.05;;;;;;;;;;5073580;28;20047;-79
2022/12/12 12:10:38;;;;;;;6.68;3.70;;;;;;;;;;5071618;28;20027;-81
2022/12/12 12:13:16;;;;;;;6.82;3.70;;;;;;;;;;5073821;28;20020;-75
2022/12/12 12:15:48;;;;;;;6.53;3.20;;;;;;;;;;5073491;28;20038;-75
2022/12/12 12:18:24;;;;;;;6.90;3.78;;;;;;;;;;5073675;28;20021;-73
2022/12/12 12:21:02;;;;;;;7.50;4.45;;;;;;;;;;5072940;28;20416;-72
2022/12/12 12:23:40;;;;;;;12.38;6.35;;;;;;;;;;5071187;28;20032;-75
2022/12/12 12:26:12;;;;;;;6.85;3.83;;;;;;;;;;5072548;28;20020;-66
2022/12/12 12:28:41;;;;;;;9.18;4.95;;;;;;;;;;5069762;28;20519;-69
2022/12/12 12:31:26;;;;;;;11.35;5.30;;;;;;;;;;5072340;28;20035;-69
2022/12/12 12:34:11;;;;;;;30.80;10.82;;;;;;;;;;5052033;28;20033;-67
2022/12/12 12:36:37;;;;;;;36.17;11.95;;;;;;;;;;5064805;28;20036;-73
2022/12/12 12:39:03;;;;;;;11.75;5.85;;;;;;;;;;5071788;28;20037;-71
2022/12/12 12:41:32;;;;;;;12.10;5.60;;;;;;;;;;5071151;28;20033;-75
2022/12/12 12:44:17;;;;;;;7.47;4.20;;;;;;;;;;5073021;28;20046;-71
2022/12/12 12:46:59;;;;;;;9.05;4.88;;;;;;;;;;5071307;28;20051;-73
2022/12/12 12:49:32;;;;;;;8.68;4.80;;;;;;;;;;5071959;28;20141;-76
2022/12/12 12:52:01;;;;;;;10.32;4.30;;;;;;;;;;5062577;28;20025;-72
2022/12/12 12:54:31;;;;;;;17.05;6.70;;;;;;;;;;5059911;28;20020;-70
2022/12/12 12:57:07;;;;;;;16.85;8.13;;;;;;;;;;5070727;28;20033;-79
2022/12/12 12:59:34;;;;;;;10.68;5.40;;;;;;;;;;5071763;28;20028;-72
2022/12/12 13:02:03;;;;;;;17.65;7.53;;;;;;;;;;5072717;28;20037;-71
2022/12/12 13:04:33;;;;;;;14.35;6.10;;;;;;;;;;5072233;28;20073;-71
2022/12/12 13:07:02;;;;;;;23.05;8.50;;;;;;;;;;5065758;28;20507;-71
2022/12/12 13:09:43;;;;;;;16.40;8.10;;;;;;;;;;5071453;28;20043;-70
2022/12/12 13:12:20;;;;;;;11.52;5.68;;;;;;;;;;5071437;28;20028;-72
2022/12/12 13:14:50;;;;;;;9.13;5.10;;;;;;;;;;5060901;28;20497;-72
2022/12/12 13:17:18;;;;;;;13.32;4.75;;;;;;;;;;5068831;28;20020;-72
2022/12/12 13:19:46;;;;;;;10.15;4.32;;;;;;;;;;5068045;28;20024;-71
2022/12/12 13:22:15;;;;;;;9.07;4.93;;;;;;;;;;5068079;28;20632;-72
2022/12/12 13:24:53;;;;;;;10.65;5.60;;;;;;;;;;5063883;28;20029;-72
2022/12/12 13:27:25;;;;;;;9.35;4.90;;;;;;;;;;5068247;28;20051;-73
2022/12/12 13:29:58;;;;;;;10.90;5.47;;;;;;;;;;5070093;28;20023;-73
2022/12/12 13:32:37;;;;;;;11.90;5.65;;;;;;;;;;5061870;28;20013;-72
2022/12/12 13:35:06;;;;;;;17.02;8.55;;;;;;;;;;5065420;28;20034;-73
2022/12/12 13:37:35;;;;;;;27.50;14.07;;;;;;;;;;5070884;28;20044;-73
2022/12/12 13:40:06;;;;;;;27.13;14.43;;;;;;;;;;5070139;28;20033;-72
2022/12/12 13:42:50;;;;;;;19.45;9.80;;;;;;;;;;5069554;28;20038;-73
2022/12/12 13:45:36;;;;;;;28.52;14.57;;;;;;;;;;5070560;28;20028;-73
2022/12/12 13:48:04;;;;;;;17.45;8.75;;;;;;;;;;5070055;28;20032;-71
2022/12/12 13:50:30;;;;;;;15.77;8.10;;;;;;;;;;5065659;28;20032;-72
2022/12/12 13:53:06;;;;;;;18.13;8.90;;;;;;;;;;5069404;28;20405;-72
2022/12/12 13:55:33;;;;;;;20.65;8.40;;;;;;;;;;5070715;28;20024;-73
2022/12/12 13:58:04;;;;;;;21.65;12.13;;;;;;;;;;5069673;28;20027;-72
2022/12/12 14:00:42;;;;;;;22.83;11.65;;;;;;;;;;5069714;28;20013;-73
2022/12/12 14:03:11;;;;;;;24.45;12.95;;;;;;;;;;5068301;28;20159;-71
2022/12/12 14:05:43;;;;;;;23.10;12.43;;;;;;;;;;5069635;28;20031;-72
2022/12/12 14:08:10;;;;;;;24.42;13.43;;;;;;;;;;5067925;28;20036;-72
2022/12/12 14:10:36;;;;;;;21.65;11.48;;;;;;;;;;5070124;28;20032;-71
2022/12/12 14:13:21;;;;;;;25.27;12.20;;;;;;;;;;5070264;28;20078;-72
2022/12/12 14:15:48;;;;;;;24.92;11.80;;;;;;;;;;5069897;28;20427;-72
2022/12/12 14:18:19;;;;;;;25.48;12.00;;;;;;;;;;5065843;28;20031;-70
2022/12/12 14:20:53;;;;;;;21.35;12.05;;;;;;;;;;5067073;28;20844;-71
2022/12/12 14:23:20;;;;;;;22.02;12.10;;;;;;;;;;5065181;28;20031;-70
2022/12/12 14:25:46;;;;;;;17.55;9.38;;;;;;;;;;5084240;28;20427;-72
2022/12/12 14:28:18;;;;;;;25.13;12.57;;;;;;;;;;5090710;28;20038;-71
2022/12/12 14:31:07;;;;;;;16.83;7.93;;;;;;;;;;5087767;28;20040;-71
2022/12/12 14:33:49;;;;;;;13.93;7.18;;;;;;;;;;5080516;28;20025;-70
2022/12/12 14:36:18;;;;;;;17.98;9.15;;;;;;;;;;5068530;28;20029;-72
2022/12/12 14:39:03;;;;;;;11.80;6.05;;;;;;;;;;5069665;28;20463;-71
2022/12/12 14:41:32;;;;;;;13.32;6.32;;;;;;;;;;5060883;28;20043;-72
2022/12/12 14:44:00;;;;;;;12.18;6.70;;;;;;;;;;5049240;28;20039;-71
2022/12/12 14:46:29;;;;;;;20.77;9.40;;;;;;;;;;5023199;28;20049;-72
2022/12/12 14:49:02;;;;;;;20.48;9.55;;;;;;;;;;5015510;28;20044;-71
2022/12/12 14:51:31;;;;;;;15.85;7.13;;;;;;;;;;5018312;28;20028;-71
2022/12/12 14:53:58;;;;;;;17.05;7.88;;;;;;;;;;5022927;28;20055;-71
2022/12/12 14:56:27;;;;;;;23.08;10.93;;;;;;;;;;5028051;28;20020;-72
2022/12/12 14:58:57;;;;;;;21.38;12.10;;;;;;;;;;5023973;28;20045;-71
2022/12/12 15:01:31;;;;;;;22.88;12.30;;;;;;;;;;5020128;28;20032;-72
2022/12/12 15:03:58;;;;;;;23.52;12.00;;;;;;;;;;5015840;28;20075;-72